createdAt,value
2022-09-15T00:01:10.375Z,8.45
2022-09-15T00:03:45.258Z,8.48
2022-09-15T00:06:12.722Z,8.13
2022-09-15T00:08:40.481Z,7.82
2022-09-15T00:11:17.573Z,8.98
2022-09-15T00:13:45.274Z,8.85
2022-09-15T00:16:15.455Z,7.90
2022-09-15T00:18:45.284Z,8.43
2022-09-15T00:21:19.000Z,8.63
2022-09-15T00:23:46.942Z,8.85
2022-09-15T00:26:17.671Z,8.60
2022-09-15T00:28:45.139Z,9.07
2022-09-15T00:31:17.018Z,8.32
2022-09-15T00:33:51.426Z,8.70
2022-09-15T00:36:20.005Z,8.23
2022-09-15T00:38:47.773Z,9.25
2022-09-15T00:41:21.571Z,8.25
2022-09-15T00:43:54.844Z,9.52
2022-09-15T00:46:44.113Z,9.38
2022-09-15T00:49:14.335Z,9.95
2022-09-15T00:51:59.005Z,10.00
2022-09-15T00:54:31.730Z,9.38
2022-09-15T00:57:03.128Z,9.65
2022-09-15T00:59:42.597Z,10.23
2022-09-15T01:02:18.358Z,9.55
2022-09-15T01:04:45.993Z,9.17
2022-09-15T01:07:16.992Z,9.48
2022-09-15T01:09:58.583Z,8.50
2022-09-15T01:12:27.304Z,8.27
2022-09-15T01:14:55.089Z,8.20
2022-09-15T01:17:31.850Z,8.32
2022-09-15T01:20:38.319Z,8.43
2022-09-15T01:23:19.950Z,7.90
2022-09-15T01:26:18.083Z,9.13
2022-09-15T01:29:03.875Z,8.45
2022-09-15T01:32:03.744Z,8.60
2022-09-15T01:34:38.563Z,7.93
2022-09-15T01:37:14.633Z,8.63
2022-09-15T01:39:45.878Z,8.30
2022-09-15T01:42:15.784Z,8.18
2022-09-15T01:44:53.128Z,8.88
2022-09-15T01:47:22.680Z,8.40
2022-09-15T01:49:54.860Z,8.82
2022-09-15T01:52:24.339Z,8.65
2022-09-15T01:54:57.329Z,9.20
2022-09-15T01:57:25.441Z,8.63
2022-09-15T01:59:55.202Z,8.93
2022-09-15T02:02:28.581Z,9.48
2022-09-15T02:05:06.164Z,8.90
2022-09-15T02:08:08.813Z,8.65
2022-09-15T02:11:06.943Z,8.38
2022-09-15T02:13:48.774Z,8.63
2022-09-15T02:16:23.179Z,8.85
2022-09-15T02:19:10.867Z,8.27
2022-09-15T02:21:54.020Z,8.20
2022-09-15T02:24:28.962Z,7.97
2022-09-15T02:26:57.814Z,7.80
2022-09-15T02:29:27.796Z,8.25
2022-09-15T02:31:58.076Z,9.25
2022-09-15T02:34:35.402Z,7.60
2022-09-15T02:37:04.760Z,8.60
2022-09-15T02:39:36.860Z,8.57
2022-09-15T02:42:04.676Z,7.97
2022-09-15T02:44:32.171Z,8.38
2022-09-15T02:47:02.052Z,8.38
2022-09-15T02:49:29.636Z,8.35
2022-09-15T02:51:56.846Z,8.75
2022-09-15T02:54:24.287Z,8.98
2022-09-15T02:56:51.438Z,8.60
2022-09-15T02:59:19.086Z,8.63
2022-09-15T03:01:46.489Z,9.05
2022-09-15T03:04:13.731Z,10.30
2022-09-15T03:06:40.897Z,9.30
2022-09-15T03:09:08.761Z,9.10
2022-09-15T03:11:36.526Z,8.70
2022-09-15T03:14:05.949Z,7.85
2022-09-15T03:16:34.775Z,8.55
2022-09-15T03:19:02.261Z,9.80
2022-09-15T03:21:30.360Z,9.77
2022-09-15T03:24:01.033Z,9.07
2022-09-15T03:26:28.246Z,8.70
2022-09-15T03:28:55.525Z,8.90
2022-09-15T03:31:23.003Z,8.43
2022-09-15T03:33:50.272Z,9.70
2022-09-15T03:36:17.573Z,7.60
2022-09-15T03:38:45.057Z,8.25
2022-09-15T03:41:13.052Z,8.55
2022-09-15T03:43:40.515Z,9.18
2022-09-15T03:46:10.443Z,9.90
2022-09-15T03:48:40.469Z,9.48
2022-09-15T03:51:10.549Z,9.77
2022-09-15T03:53:40.640Z,9.45
2022-09-15T03:56:27.564Z,9.77
2022-09-15T03:58:55.096Z,9.77
2022-09-15T04:01:23.587Z,10.27
2022-09-15T04:03:51.918Z,10.73
2022-09-15T04:06:20.985Z,10.40
2022-09-15T04:08:49.172Z,11.55
2022-09-15T04:11:17.344Z,11.55
2022-09-15T04:13:45.275Z,11.38
2022-09-15T04:16:17.050Z,11.80
2022-09-15T04:18:44.994Z,11.57
2022-09-15T04:21:15.208Z,11.32
2022-09-15T04:23:43.707Z,12.55
2022-09-15T04:26:27.813Z,11.48
2022-09-15T04:28:55.261Z,13.38
2022-09-15T04:31:22.809Z,17.20
2022-09-15T04:33:53.181Z,13.82
2022-09-15T04:36:24.134Z,13.65
2022-09-15T04:38:52.119Z,13.20
2022-09-15T04:41:20.373Z,12.95
2022-09-15T04:43:47.792Z,12.25
2022-09-15T04:46:15.600Z,12.45
2022-09-15T04:48:46.216Z,11.70
2022-09-15T04:51:19.535Z,12.27
2022-09-15T04:53:46.994Z,12.68
2022-09-15T04:56:22.348Z,18.45
2022-09-15T04:58:58.260Z,17.60
2022-09-15T05:01:30.956Z,31.65
2022-09-15T05:03:58.264Z,34.50
2022-09-15T05:06:27.928Z,30.23
2022-09-15T05:08:57.202Z,33.05
2022-09-15T05:11:25.445Z,31.52
2022-09-15T05:13:52.848Z,28.20
2022-09-15T05:16:23.483Z,20.85
2022-09-15T05:18:52.660Z,17.23
2022-09-15T05:21:22.034Z,17.05
2022-09-15T05:23:51.984Z,14.90
2022-09-15T05:26:23.166Z,13.73
2022-09-15T05:28:50.531Z,13.25
2022-09-15T05:31:21.224Z,13.50
2022-09-15T05:33:50.138Z,12.98
2022-09-15T05:36:19.306Z,11.68
2022-09-15T05:38:46.851Z,12.48
2022-09-15T05:41:17.639Z,14.88
2022-09-15T05:43:47.054Z,12.10
2022-09-15T05:46:16.195Z,13.00
2022-09-15T05:48:44.655Z,13.32
2022-09-15T05:51:12.882Z,12.07
2022-09-15T05:53:40.315Z,12.65
2022-09-15T05:56:11.919Z,12.70
2022-09-15T05:58:44.516Z,13.73
2022-09-15T06:01:16.318Z,12.88
2022-09-15T06:03:43.979Z,13.18
2022-09-15T06:06:14.795Z,13.27
2022-09-15T06:08:50.770Z,14.40
2022-09-15T06:11:22.424Z,13.82
2022-09-15T06:13:50.065Z,13.45
2022-09-15T06:16:22.822Z,14.05
2022-09-15T06:18:52.726Z,12.27
2022-09-15T06:21:26.123Z,12.93
2022-09-15T06:23:55.425Z,12.85
2022-09-15T06:26:23.338Z,11.82
2022-09-15T06:28:55.668Z,11.80
2022-09-15T06:31:24.178Z,12.35
2022-09-15T06:33:54.108Z,11.32
2022-09-15T06:36:27.350Z,12.38
2022-09-15T06:38:55.244Z,13.70
2022-09-15T06:41:22.683Z,10.85
2022-09-15T06:43:50.260Z,11.60
2022-09-15T06:46:23.775Z,12.35
2022-09-15T06:48:52.086Z,11.70
2022-09-15T06:51:22.427Z,11.75
2022-09-15T06:53:50.000Z,12.52
2022-09-15T06:56:20.840Z,12.52
2022-09-15T06:58:51.301Z,11.77
2022-09-15T07:01:31.527Z,12.07
2022-09-15T07:04:01.007Z,12.13
2022-09-15T07:06:30.369Z,11.90
2022-09-15T07:08:58.618Z,11.75
2022-09-15T07:11:26.489Z,11.00
2022-09-15T07:13:53.714Z,10.73
2022-09-15T07:16:22.769Z,10.32
2022-09-15T07:18:50.222Z,10.75
2022-09-15T07:21:20.189Z,10.95
2022-09-15T07:23:48.657Z,9.30
2022-09-15T07:26:24.288Z,9.13
2022-09-15T07:28:56.724Z,8.50
2022-09-15T07:31:26.972Z,8.77
2022-09-15T07:33:54.625Z,8.82
2022-09-15T07:36:22.252Z,8.30
2022-09-15T07:38:50.279Z,8.30
2022-09-15T07:41:20.955Z,7.93
2022-09-15T07:43:53.449Z,8.10
2022-09-15T07:46:22.593Z,8.85
2022-09-15T07:48:52.067Z,8.00
2022-09-15T07:51:19.761Z,9.20
2022-09-15T07:53:48.527Z,7.72
2022-09-15T07:56:20.561Z,6.22
2022-09-15T07:58:48.666Z,6.80
2022-09-15T08:01:17.718Z,7.22
2022-09-15T08:03:52.183Z,7.20
2022-09-15T08:06:23.963Z,5.70
2022-09-15T08:08:55.065Z,5.38
2022-09-15T08:11:26.698Z,4.85
2022-09-15T08:13:54.011Z,4.47
2022-09-15T08:16:23.825Z,4.18
2022-09-15T08:18:54.945Z,3.65
2022-09-15T08:21:23.112Z,3.60
2022-09-15T08:23:52.660Z,3.08
2022-09-15T08:26:23.645Z,3.60
2022-09-15T08:28:53.024Z,3.30
2022-09-15T08:31:20.738Z,3.42
2022-09-15T08:33:50.347Z,3.33
2022-09-15T08:36:17.816Z,3.20
2022-09-15T08:38:46.443Z,2.85
2022-09-15T08:41:25.961Z,3.05
2022-09-15T08:44:02.078Z,2.72
2022-09-15T08:46:41.497Z,2.38
2022-09-15T08:49:50.084Z,2.50
2022-09-15T08:52:26.081Z,2.60
2022-09-15T08:54:57.812Z,2.90
2022-09-15T08:57:26.213Z,2.30
2022-09-15T08:59:55.044Z,2.28
2022-09-15T09:02:56.241Z,16.13
2022-09-15T09:05:50.927Z,3.45
2022-09-15T09:08:39.875Z,2.85
2022-09-15T09:11:19.000Z,2.40
2022-09-15T09:13:54.350Z,3.17
2022-09-15T09:16:48.668Z,2.78
2022-09-15T09:19:53.439Z,3.70
2022-09-15T09:22:27.984Z,2.30
2022-09-15T09:24:58.570Z,3.38
2022-09-15T09:27:33.813Z,2.30
2022-09-15T09:30:16.089Z,3.20
2022-09-15T09:33:18.858Z,2.63
2022-09-15T09:35:50.118Z,3.85
2022-09-15T09:38:24.095Z,2.60
2022-09-15T09:40:52.110Z,2.50
2022-09-15T09:43:20.340Z,2.58
2022-09-15T09:45:47.605Z,3.00
2022-09-15T09:48:25.367Z,2.70
2022-09-15T09:50:52.862Z,2.72
2022-09-15T09:53:29.129Z,2.75
2022-09-15T09:56:17.403Z,2.70
2022-09-15T09:58:45.539Z,2.28
2022-09-15T10:01:18.791Z,2.85
2022-09-15T10:03:46.904Z,2.33
2022-09-15T10:06:18.620Z,2.97
2022-09-15T10:09:04.162Z,2.38
2022-09-15T10:12:04.107Z,3.13
2022-09-15T10:14:37.720Z,2.38
2022-09-15T10:17:09.889Z,2.80
2022-09-15T10:19:43.097Z,2.30
2022-09-15T10:22:20.787Z,2.28
2022-09-15T10:24:50.156Z,2.08
2022-09-15T10:27:17.828Z,2.28
2022-09-15T10:29:45.487Z,3.80
2022-09-15T10:32:25.404Z,2.47
2022-09-15T10:35:01.927Z,1.92
2022-09-15T10:38:09.058Z,2.23
2022-09-15T10:40:55.111Z,1.95
2022-09-15T10:43:25.346Z,2.25
2022-09-15T10:46:08.204Z,2.65
2022-09-15T10:48:48.487Z,2.67
2022-09-15T10:51:37.880Z,2.80
2022-09-15T10:54:23.080Z,2.35
2022-09-15T10:56:58.123Z,2.28
2022-09-15T10:59:56.883Z,1.95
2022-09-15T11:02:33.787Z,2.85
2022-09-15T11:05:23.945Z,2.20
2022-09-15T11:08:10.155Z,2.65
2022-09-15T11:10:56.738Z,2.60
2022-09-15T11:13:56.771Z,2.65
2022-09-15T11:16:24.020Z,1.75
2022-09-15T11:18:57.168Z,2.35
2022-09-15T11:21:34.137Z,2.20
2022-09-15T11:24:23.022Z,2.33
2022-09-15T11:26:56.891Z,2.10
2022-09-15T11:29:49.353Z,1.88
2022-09-15T11:32:26.057Z,2.00
2022-09-15T11:35:02.737Z,2.00
2022-09-15T11:40:18.815Z,1.90
2022-09-15T11:43:24.537Z,2.15
2022-09-15T11:45:56.980Z,2.72
2022-09-15T11:48:30.105Z,2.05
2022-09-15T11:51:02.048Z,1.77
2022-09-15T11:53:35.475Z,2.08
2022-09-15T11:56:28.811Z,2.25
2022-09-15T11:59:22.980Z,2.40
2022-09-15T12:02:19.344Z,2.13
2022-09-15T12:05:21.522Z,1.95
2022-09-15T12:07:55.158Z,2.35
2022-09-15T12:10:31.435Z,2.88
2022-09-15T12:15:27.730Z,2.10
2022-09-15T12:18:27.655Z,2.10
2022-09-15T12:21:28.919Z,1.98
2022-09-15T12:24:11.206Z,2.60
2022-09-15T12:26:39.351Z,2.20
2022-09-15T12:29:21.787Z,2.10
2022-09-15T12:31:50.545Z,2.10
2022-09-15T12:34:38.542Z,2.20
2022-09-15T12:37:13.568Z,1.90
2022-09-15T12:39:41.996Z,1.75
2022-09-15T12:42:25.141Z,2.20
2022-09-15T12:45:00.829Z,2.13
2022-09-15T12:47:31.915Z,2.28
2022-09-15T12:50:17.155Z,2.20
2022-09-15T12:52:49.999Z,1.90
2022-09-15T12:55:35.235Z,2.30
2022-09-15T12:58:10.664Z,1.50
2022-09-15T13:00:49.992Z,1.83
2022-09-15T13:06:10.670Z,2.05
2022-09-15T13:08:38.164Z,2.25
2022-09-15T13:11:38.606Z,1.67
2022-09-15T13:14:11.951Z,1.90
2022-09-15T13:16:45.788Z,2.15
2022-09-15T13:19:36.015Z,1.90
2022-09-15T13:22:12.639Z,2.03
2022-09-15T13:25:02.333Z,1.95
2022-09-15T13:27:38.459Z,1.60
2022-09-15T13:30:09.455Z,1.75
2022-09-15T13:33:06.945Z,1.80
2022-09-15T13:36:11.011Z,1.80
2022-09-15T13:38:47.454Z,1.92
2022-09-15T13:41:31.595Z,2.05
2022-09-15T13:44:37.119Z,1.80
2022-09-15T13:47:16.533Z,1.88
2022-09-15T13:49:55.879Z,2.10
2022-09-15T13:52:46.786Z,2.17
2022-09-15T13:55:24.169Z,2.38
2022-09-15T14:01:08.652Z,2.00
2022-09-15T14:03:40.765Z,2.40
2022-09-15T14:06:38.769Z,2.25
2022-09-15T14:09:30.395Z,2.20
2022-09-15T14:12:01.430Z,1.92
2022-09-15T14:14:34.648Z,2.10
2022-09-15T14:17:02.325Z,2.03
2022-09-15T14:19:33.860Z,2.20
2022-09-15T14:22:21.124Z,2.58
2022-09-15T14:24:51.588Z,2.60
2022-09-15T14:27:25.648Z,3.35
2022-09-15T14:29:55.460Z,2.22
2022-09-15T14:32:23.556Z,1.90
2022-09-15T14:34:51.188Z,2.25
2022-09-15T14:37:27.671Z,1.83
2022-09-15T14:39:57.775Z,1.85
2022-09-15T14:42:32.502Z,2.17
2022-09-15T14:48:16.263Z,2.40
2022-09-15T14:50:45.293Z,2.45
2022-09-15T14:53:25.428Z,2.00
2022-09-15T14:56:18.889Z,1.80
2022-09-15T14:58:55.392Z,2.70
2022-09-15T15:01:29.845Z,2.90
2022-09-15T15:04:00.407Z,2.08
2022-09-15T15:06:49.432Z,4.32
2022-09-15T15:09:38.982Z,3.78
2022-09-15T15:12:25.502Z,5.38
2022-09-15T15:14:57.081Z,4.63
2022-09-15T15:17:27.861Z,2.38
2022-09-15T15:20:10.553Z,3.35
2022-09-15T15:22:39.844Z,4.05
2022-09-15T15:25:37.380Z,2.95
2022-09-15T15:28:06.701Z,3.35
2022-09-15T15:30:43.136Z,2.70
2022-09-15T15:33:19.677Z,2.90
2022-09-15T15:35:48.762Z,3.00
2022-09-15T15:38:19.556Z,2.90
2022-09-15T15:40:47.354Z,2.42
2022-09-15T15:43:24.242Z,3.53
2022-09-15T15:45:58.424Z,4.63
2022-09-15T15:48:32.850Z,6.55
2022-09-15T15:51:05.093Z,7.13
2022-09-15T15:53:32.523Z,10.57
2022-09-15T15:56:00.918Z,4.28
2022-09-15T15:58:28.254Z,5.18
2022-09-15T16:00:56.819Z,2.70
2022-09-15T16:03:25.630Z,4.88
2022-09-15T16:05:57.309Z,3.80
2022-09-15T16:08:38.227Z,3.50
2022-09-15T16:11:09.110Z,4.55
2022-09-15T16:13:36.588Z,3.50
2022-09-15T16:16:14.870Z,3.30
2022-09-15T16:18:42.963Z,5.25
2022-09-15T16:21:20.460Z,3.90
2022-09-15T16:23:48.267Z,3.20
2022-09-15T16:26:18.622Z,2.90
2022-09-15T16:28:46.284Z,3.65
2022-09-15T16:31:15.257Z,3.28
2022-09-15T16:33:44.671Z,3.33
2022-09-15T16:36:17.807Z,3.55
2022-09-15T16:38:46.336Z,3.03
2022-09-15T16:41:19.805Z,2.63
2022-09-15T16:43:47.806Z,2.97
2022-09-15T16:46:15.590Z,3.38
2022-09-15T16:48:44.219Z,3.20
2022-09-15T16:51:29.877Z,3.58
2022-09-15T16:53:58.825Z,4.63
2022-09-15T16:56:27.096Z,3.80
2022-09-15T16:58:59.517Z,3.38
2022-09-15T17:01:27.727Z,3.30
2022-09-15T17:03:55.904Z,3.75
2022-09-15T17:06:23.171Z,3.33
2022-09-15T17:08:50.680Z,4.60
2022-09-15T17:11:20.215Z,4.18
2022-09-15T17:13:47.591Z,4.38
2022-09-15T17:16:19.272Z,4.20
2022-09-15T17:18:47.224Z,4.65
2022-09-15T17:21:16.430Z,4.38
2022-09-15T17:23:46.772Z,4.30
2022-09-15T17:26:23.998Z,5.15
2022-09-15T17:28:55.546Z,4.93
2022-09-15T17:31:24.993Z,4.63
2022-09-15T17:33:52.591Z,3.38
2022-09-15T17:36:20.081Z,3.75
2022-09-15T17:38:48.939Z,3.30
2022-09-15T17:41:19.035Z,3.38
2022-09-15T17:43:47.715Z,3.10
2022-09-15T17:46:15.080Z,4.55
2022-09-15T17:48:42.627Z,4.03
2022-09-15T17:51:15.052Z,4.22
2022-09-15T17:53:43.091Z,4.13
2022-09-15T17:56:10.581Z,4.32
2022-09-15T17:58:37.927Z,4.22
2022-09-15T18:01:05.276Z,4.22
2022-09-15T18:03:37.706Z,5.45
2022-09-15T18:06:08.121Z,5.90
2022-09-15T18:08:36.558Z,3.95
2022-09-15T18:11:05.941Z,4.05
2022-09-15T18:13:34.170Z,4.28
2022-09-15T18:16:07.105Z,3.53
2022-09-15T18:18:34.526Z,3.58
2022-09-15T18:21:07.176Z,4.03
2022-09-15T18:23:34.939Z,4.75
2022-09-15T18:26:02.293Z,5.13
2022-09-15T18:28:29.534Z,4.35
2022-09-15T18:30:56.948Z,3.70
2022-09-15T18:33:26.148Z,3.90
2022-09-15T18:35:56.282Z,4.05
2022-09-15T18:38:23.942Z,4.50
2022-09-15T18:40:54.111Z,4.78
2022-09-15T18:43:22.581Z,4.18
2022-09-15T18:45:50.430Z,3.97
2022-09-15T18:48:17.874Z,4.43
2022-09-15T18:50:45.472Z,3.78
2022-09-15T18:53:14.374Z,3.85
2022-09-15T18:55:42.235Z,3.78
2022-09-15T18:58:10.766Z,4.00
2022-09-15T19:00:38.227Z,3.40
2022-09-15T19:03:08.225Z,3.08
2022-09-15T19:05:35.735Z,2.60
2022-09-15T19:08:04.142Z,2.90
2022-09-15T19:10:31.357Z,2.70
2022-09-15T19:12:58.570Z,2.67
2022-09-15T19:15:25.897Z,2.45
2022-09-15T19:17:53.411Z,2.70
2022-09-15T19:20:20.730Z,2.30
2022-09-15T19:22:48.191Z,2.05
2022-09-15T19:25:15.513Z,2.33
2022-09-15T19:27:43.188Z,2.83
2022-09-15T19:30:12.060Z,3.17
2022-09-15T19:32:40.238Z,3.50
2022-09-15T19:35:08.885Z,2.72
2022-09-15T19:37:39.321Z,3.60
2022-09-15T19:40:09.688Z,3.00
2022-09-15T19:42:38.629Z,2.60
2022-09-15T19:45:07.126Z,3.10
2022-09-15T19:47:34.767Z,3.40
2022-09-15T19:50:03.130Z,3.28
2022-09-15T19:52:30.394Z,3.47
2022-09-15T19:54:57.651Z,3.55
2022-09-15T19:57:25.487Z,3.65
2022-09-15T19:59:52.663Z,3.60
2022-09-15T20:02:22.474Z,3.70
2022-09-15T20:07:35.175Z,3.40
2022-09-15T20:10:02.774Z,3.03
2022-09-15T20:12:31.188Z,3.70
2022-09-15T20:14:58.386Z,3.60
2022-09-15T20:17:28.810Z,3.10
2022-09-15T20:19:56.042Z,3.60
2022-09-15T20:22:23.713Z,4.38
2022-09-15T20:24:51.824Z,3.53
2022-09-15T20:27:19.100Z,3.72
2022-09-15T20:29:46.339Z,3.33
2022-09-15T20:32:14.125Z,3.50
2022-09-15T20:34:41.485Z,3.50
2022-09-15T20:37:08.923Z,4.03
2022-09-15T20:39:36.320Z,4.35
2022-09-15T20:42:03.852Z,5.10
2022-09-15T20:44:31.016Z,4.18
2022-09-15T20:46:58.430Z,4.35
2022-09-15T20:49:25.620Z,3.78
2022-09-15T20:51:53.060Z,3.40
2022-09-15T20:54:20.575Z,3.30
2022-09-15T20:56:47.752Z,2.80
2022-09-15T20:59:15.238Z,3.28
2022-09-15T21:01:43.646Z,2.65
2022-09-15T21:04:11.406Z,3.63
2022-09-15T21:06:39.216Z,2.60
2022-09-15T21:09:07.450Z,3.08
2022-09-15T21:11:35.461Z,2.40
2022-09-15T21:14:03.382Z,2.78
2022-09-15T21:16:30.811Z,2.90
2022-09-15T21:18:58.877Z,2.28
2022-09-15T21:21:29.854Z,3.08
2022-09-15T21:24:06.166Z,2.30
2022-09-15T21:27:00.354Z,2.45
2022-09-15T21:29:28.852Z,2.80
2022-09-15T21:31:56.433Z,3.00
2022-09-15T21:34:24.071Z,3.00
2022-09-15T21:36:54.795Z,2.38
2022-09-15T21:39:22.156Z,3.53
2022-09-15T21:41:50.148Z,3.15
2022-09-15T21:44:17.648Z,2.65
2022-09-15T21:46:47.025Z,2.80
2022-09-15T21:49:15.041Z,2.28
2022-09-15T21:51:42.508Z,2.55
2022-09-15T21:54:10.360Z,2.60
2022-09-15T21:56:37.900Z,3.10
2022-09-15T21:59:05.721Z,2.80
2022-09-15T22:01:33.443Z,2.53
2022-09-15T22:04:04.102Z,2.90
2022-09-15T22:06:34.375Z,3.88
2022-09-15T22:09:04.516Z,2.80
2022-09-15T22:11:32.206Z,3.10
2022-09-15T22:14:01.874Z,3.10
2022-09-15T22:16:29.487Z,3.10
2022-09-15T22:18:57.188Z,3.10
2022-09-15T22:21:28.782Z,3.10
2022-09-15T22:23:57.556Z,3.10
2022-09-15T22:26:29.528Z,3.38
2022-09-15T22:28:59.319Z,3.00
2022-09-15T22:31:27.729Z,3.58
2022-09-15T22:33:55.624Z,3.40
2022-09-15T22:36:29.341Z,2.83
2022-09-15T22:39:04.146Z,2.63
2022-09-15T22:41:37.016Z,2.90
2022-09-15T22:44:05.893Z,3.08
2022-09-15T22:46:33.540Z,3.15
2022-09-15T22:49:01.444Z,3.13
2022-09-15T22:51:29.121Z,4.43
2022-09-15T22:53:57.383Z,3.20
2022-09-15T22:56:26.367Z,3.33
2022-09-15T22:58:54.585Z,3.45
2022-09-15T23:01:27.038Z,5.60
2022-09-15T23:03:59.213Z,3.58
2022-09-15T23:06:29.487Z,2.95
2022-09-15T23:08:59.427Z,3.35
2022-09-15T23:11:28.876Z,3.53
2022-09-15T23:13:56.649Z,3.45
2022-09-15T23:16:25.582Z,2.92
2022-09-15T23:18:54.517Z,3.83
2022-09-15T23:21:22.340Z,3.67
2022-09-15T23:23:50.453Z,3.45
2022-09-15T23:26:19.811Z,3.83
2022-09-15T23:28:49.189Z,3.75
2022-09-15T23:31:16.940Z,3.58
2022-09-15T23:33:44.463Z,3.78
2022-09-15T23:36:15.430Z,3.50
2022-09-15T23:38:44.512Z,3.67
2022-09-15T23:41:12.847Z,3.90
2022-09-15T23:43:40.678Z,4.03
2022-09-15T23:46:08.197Z,4.00
2022-09-15T23:48:35.732Z,4.03
2022-09-15T23:51:03.982Z,3.90
2022-09-15T23:53:31.372Z,3.10
2022-09-15T23:55:58.881Z,3.45
2022-09-15T23:58:26.392Z,3.80
